sensor_id;sensor_type;location;lat;lon;timestamp;pressure;altitude;pressure_sealevel;temperature;humidity
9905;BME280;4991;43.566;27.820;2023-07-31T00:00:34;98217.25;;;19.88;100.00
9905;BME280;4991;43.566;27.820;2023-07-31T00:03:00;98222.78;;;19.88;100.00
9905;BME280;4991;43.566;27.820;2023-07-31T00:05:26;98212.47;;;19.85;100.00
9905;BME280;4991;43.566;27.820;2023-07-31T00:07:51;98218.47;;;19.91;100.00
9905;BME280;4991;43.566;27.820;2023-07-31T00:10:19;98220.00;;;19.88;100.00
9905;BME280;4991;43.566;27.820;2023-07-31T00:12:45;98221.19;;;19.87;100.00
9905;BME280;4991;43.566;27.820;2023-07-31T00:15:10;98221.59;;;19.86;100.00
9905;BME280;4991;43.566;27.820;2023-07-31T00:17:36;98224.75;;;19.88;100.00
9905;BME280;4991;43.566;27.820;2023-07-31T00:20:02;98225.19;;;19.93;100.00
9905;BME280;4991;43.566;27.820;2023-07-31T00:22:28;98215.69;;;19.87;100.00
9905;BME280;4991;43.566;27.820;2023-07-31T00:24:54;98224.38;;;19.89;100.00
9905;BME280;4991;43.566;27.820;2023-07-31T00:27:19;98222.72;;;19.81;100.00
9905;BME280;4991;43.566;27.820;2023-07-31T00:29:45;98234.56;;;19.82;100.00
9905;BME280;4991;43.566;27.820;2023-07-31T00:32:11;98236.91;;;19.80;100.00
9905;BME280;4991;43.566;27.820;2023-07-31T00:34:37;98230.22;;;19.81;100.00
9905;BME280;4991;43.566;27.820;2023-07-31T00:37:03;98233.69;;;19.74;100.00
9905;BME280;4991;43.566;27.820;2023-07-31T00:39:30;98235.97;;;19.69;100.00
9905;BME280;4991;43.566;27.820;2023-07-31T00:41:56;98234.06;;;19.73;100.00
9905;BME280;4991;43.566;27.820;2023-07-31T00:44:22;98239.97;;;19.71;100.00
9905;BME280;4991;43.566;27.820;2023-07-31T00:46:48;98235.59;;;19.70;100.00
9905;BME280;4991;43.566;27.820;2023-07-31T00:49:15;98241.50;;;19.69;100.00
9905;BME280;4991;43.566;27.820;2023-07-31T00:51:41;98240.25;;;19.63;100.00
9905;BME280;4991;43.566;27.820;2023-07-31T00:54:06;98238.31;;;19.63;100.00
9905;BME280;4991;43.566;27.820;2023-07-31T00:56:32;98235.41;;;19.53;100.00
9905;BME280;4991;43.566;27.820;2023-07-31T00:58:58;98240.16;;;19.56;100.00
9905;BME280;4991;43.566;27.820;2023-07-31T01:01:24;98235.72;;;19.48;100.00
9905;BME280;4991;43.566;27.820;2023-07-31T01:03:51;98230.63;;;19.50;100.00
9905;BME280;4991;43.566;27.820;2023-07-31T01:09:08;98235.72;;;19.48;100.00
9905;BME280;4991;43.566;27.820;2023-07-31T01:12:00;98235.63;;;19.41;100.00
9905;BME280;4991;43.566;27.820;2023-07-31T01:14:26;98234.44;;;19.38;100.00
9905;BME280;4991;43.566;27.820;2023-07-31T01:16:52;98214.88;;;19.24;100.00
9905;BME280;4991;43.566;27.820;2023-07-31T01:19:21;98228.97;;;19.42;100.00
9905;BME280;4991;43.566;27.820;2023-07-31T01:27:06;98233.78;;;19.48;100.00
9905;BME280;4991;43.566;27.820;2023-07-31T01:29:44;98244.78;;;19.45;100.00
9905;BME280;4991;43.566;27.820;2023-07-31T01:32:13;98242.38;;;19.43;100.00
9905;BME280;4991;43.566;27.820;2023-07-31T01:34:39;98252.16;;;19.37;100.00
9905;BME280;4991;43.566;27.820;2023-07-31T01:37:06;98268.19;;;19.28;100.00
9905;BME280;4991;43.566;27.820;2023-07-31T01:39:31;98273.13;;;19.15;100.00
9905;BME280;4991;43.566;27.820;2023-07-31T01:41:57;98279.31;;;19.09;100.00
9905;BME280;4991;43.566;27.820;2023-07-31T01:44:23;98266.34;;;19.09;100.00
9905;BME280;4991;43.566;27.820;2023-07-31T01:46:48;98253.16;;;18.99;100.00
9905;BME280;4991;43.566;27.820;2023-07-31T01:49:14;98263.84;;;19.01;100.00
9905;BME280;4991;43.566;27.820;2023-07-31T01:51:40;98270.00;;;18.91;100.00
9905;BME280;4991;43.566;27.820;2023-07-31T01:54:05;98279.28;;;19.05;100.00
9905;BME280;4991;43.566;27.820;2023-07-31T01:56:31;98276.56;;;19.09;100.00
9905;BME280;4991;43.566;27.820;2023-07-31T01:58:56;98264.38;;;19.10;100.00
9905;BME280;4991;43.566;27.820;2023-07-31T02:01:22;98269.56;;;19.15;100.00
9905;BME280;4991;43.566;27.820;2023-07-31T02:03:48;98278.94;;;19.10;100.00
9905;BME280;4991;43.566;27.820;2023-07-31T02:06:14;98287.72;;;19.16;100.00
9905;BME280;4991;43.566;27.820;2023-07-31T02:08:40;98281.34;;;19.12;100.00
9905;BME280;4991;43.566;27.820;2023-07-31T02:11:06;98269.47;;;19.08;100.00
9905;BME280;4991;43.566;27.820;2023-07-31T02:13:31;98260.88;;;19.13;100.00
9905;BME280;4991;43.566;27.820;2023-07-31T02:15:57;98274.19;;;19.07;100.00
9905;BME280;4991;43.566;27.820;2023-07-31T02:18:23;98270.63;;;19.07;100.00
9905;BME280;4991;43.566;27.820;2023-07-31T02:20:52;98265.97;;;19.11;100.00
9905;BME280;4991;43.566;27.820;2023-07-31T02:23:19;98262.34;;;19.07;100.00
9905;BME280;4991;43.566;27.820;2023-07-31T02:25:45;98254.03;;;19.03;100.00
9905;BME280;4991;43.566;27.820;2023-07-31T02:28:11;98266.28;;;19.06;100.00
9905;BME280;4991;43.566;27.820;2023-07-31T02:30:37;98258.81;;;19.06;100.00
9905;BME280;4991;43.566;27.820;2023-07-31T02:33:03;98252.84;;;19.04;100.00
9905;BME280;4991;43.566;27.820;2023-07-31T02:35:29;98259.63;;;19.10;100.00
9905;BME280;4991;43.566;27.820;2023-07-31T02:37:55;98267.97;;;19.14;100.00
9905;BME280;4991;43.566;27.820;2023-07-31T02:40:20;98275.13;;;19.18;100.00
9905;BME280;4991;43.566;27.820;2023-07-31T02:42:46;98267.59;;;19.15;100.00
9905;BME280;4991;43.566;27.820;2023-07-31T02:45:11;98272.38;;;19.18;100.00
9905;BME280;4991;43.566;27.820;2023-07-31T02:47:37;98273.91;;;19.16;100.00
9905;BME280;4991;43.566;27.820;2023-07-31T02:50:03;98275.09;;;19.15;100.00
9905;BME280;4991;43.566;27.820;2023-07-31T02:52:29;98285.00;;;19.19;100.00
9905;BME280;4991;43.566;27.820;2023-07-31T02:54:55;98273.53;;;19.17;100.00
9905;BME280;4991;43.566;27.820;2023-07-31T02:57:20;98276.50;;;19.05;100.00
9905;BME280;4991;43.566;27.820;2023-07-31T02:59:46;98286.78;;;19.05;100.00
9905;BME280;4991;43.566;27.820;2023-07-31T03:02:12;98284.41;;;19.07;100.00
9905;BME280;4991;43.566;27.820;2023-07-31T03:04:39;98286.47;;;19.10;100.00
9905;BME280;4991;43.566;27.820;2023-07-31T03:07:05;98288.72;;;19.04;100.00
9905;BME280;4991;43.566;27.820;2023-07-31T03:09:30;98285.16;;;19.04;100.00
9905;BME280;4991;43.566;27.820;2023-07-31T03:11:56;98295.50;;;19.10;100.00
9905;BME280;4991;43.566;27.820;2023-07-31T03:14:22;98277.75;;;19.08;100.00
9905;BME280;4991;43.566;27.820;2023-07-31T03:16:48;98280.56;;;19.11;100.00
9905;BME280;4991;43.566;27.820;2023-07-31T03:19:14;98285.00;;;19.19;100.00
9905;BME280;4991;43.566;27.820;2023-07-31T03:21:39;98289.31;;;19.17;100.00
9905;BME280;4991;43.566;27.820;2023-07-31T03:24:05;98284.41;;;19.30;100.00
9905;BME280;4991;43.566;27.820;2023-07-31T03:26:33;98281.66;;;19.30;100.00
9905;BME280;4991;43.566;27.820;2023-07-31T03:28:59;98272.09;;;19.27;100.00
9905;BME280;4991;43.566;27.820;2023-07-31T03:31:25;98272.66;;;19.36;100.00
9905;BME280;4991;43.566;27.820;2023-07-31T03:33:50;98278.66;;;19.42;100.00
9905;BME280;4991;43.566;27.820;2023-07-31T03:36:16;98277.97;;;19.48;100.00
9905;BME280;4991;43.566;27.820;2023-07-31T03:38:41;98272.13;;;19.53;100.00
9905;BME280;4991;43.566;27.820;2023-07-31T03:41:07;98268.97;;;19.55;100.00
9905;BME280;4991;43.566;27.820;2023-07-31T03:43:33;98278.41;;;19.54;100.00
9905;BME280;4991;43.566;27.820;2023-07-31T03:46:01;98274.53;;;19.58;100.00
9905;BME280;4991;43.566;27.820;2023-07-31T03:48:27;98266.38;;;19.69;100.00
9905;BME280;4991;43.566;27.820;2023-07-31T03:50:53;98269.59;;;19.74;100.00
9905;BME280;4991;43.566;27.820;2023-07-31T03:53:19;98271.22;;;19.79;100.00
9905;BME280;4991;43.566;27.820;2023-07-31T03:55:45;98264.91;;;19.78;100.00
9905;BME280;4991;43.566;27.820;2023-07-31T03:58:10;98281.28;;;19.94;100.00
9905;BME280;4991;43.566;27.820;2023-07-31T04:00:36;98283.72;;;19.99;100.00
9905;BME280;4991;43.566;27.820;2023-07-31T04:03:02;98285.75;;;20.05;100.00
9905;BME280;4991;43.566;27.820;2023-07-31T04:05:30;98279.47;;;20.08;100.00
9905;BME280;4991;43.566;27.820;2023-07-31T04:07:55;98273.47;;;19.99;100.00
9905;BME280;4991;43.566;27.820;2023-07-31T04:10:21;98290.53;;;20.08;100.00
9905;BME280;4991;43.566;27.820;2023-07-31T04:12:46;98291.06;;;20.17;100.00
9905;BME280;4991;43.566;27.820;2023-07-31T04:15:12;98290.13;;;20.10;100.00
9905;BME280;4991;43.566;27.820;2023-07-31T04:17:37;98293.44;;;20.19;100.00
9905;BME280;4991;43.566;27.820;2023-07-31T04:20:03;98292.34;;;20.27;100.00
9905;BME280;4991;43.566;27.820;2023-07-31T04:22:29;98290.84;;;20.36;100.00
9905;BME280;4991;43.566;27.820;2023-07-31T04:24:55;98284.66;;;20.50;100.00
9905;BME280;4991;43.566;27.820;2023-07-31T04:27:20;98289.13;;;20.62;100.00
9905;BME280;4991;43.566;27.820;2023-07-31T04:29:46;98281.78;;;20.83;100.00
9905;BME280;4991;43.566;27.820;2023-07-31T04:32:12;98286.63;;;20.93;100.00
9905;BME280;4991;43.566;27.820;2023-07-31T04:34:38;98282.75;;;21.01;100.00
9905;BME280;4991;43.566;27.820;2023-07-31T04:37:04;98282.38;;;21.06;100.00
9905;BME280;4991;43.566;27.820;2023-07-31T04:39:29;98281.19;;;21.04;100.00
9905;BME280;4991;43.566;27.820;2023-07-31T04:41:55;98287.91;;;21.03;100.00
9905;BME280;4991;43.566;27.820;2023-07-31T04:44:21;98281.63;;;21.13;100.00
9905;BME280;4991;43.566;27.820;2023-07-31T04:46:46;98284.44;;;21.16;100.00
9905;BME280;4991;43.566;27.820;2023-07-31T04:49:12;98294.28;;;21.10;100.00
9905;BME280;4991;43.566;27.820;2023-07-31T04:51:38;98296.72;;;21.19;100.00
9905;BME280;4991;43.566;27.820;2023-07-31T04:54:04;98296.00;;;21.29;100.00
9905;BME280;4991;43.566;27.820;2023-07-31T04:56:30;98296.38;;;21.24;100.00
9905;BME280;4991;43.566;27.820;2023-07-31T04:58:55;98302.66;;;21.17;100.00
9905;BME280;4991;43.566;27.820;2023-07-31T05:01:21;98293.72;;;20.94;100.00
9905;BME280;4991;43.566;27.820;2023-07-31T05:03:47;98304.09;;;20.97;100.00
9905;BME280;4991;43.566;27.820;2023-07-31T05:06:12;98296.88;;;20.93;100.00
9905;BME280;4991;43.566;27.820;2023-07-31T05:08:40;98291.34;;;20.93;100.00
9905;BME280;4991;43.566;27.820;2023-07-31T05:11:06;98298.59;;;21.01;100.00
9905;BME280;4991;43.566;27.820;2023-07-31T05:13:31;98298.97;;;21.03;100.00
9905;BME280;4991;43.566;27.820;2023-07-31T05:15:57;98296.59;;;21.01;100.00
9905;BME280;4991;43.566;27.820;2023-07-31T05:18:23;98301.75;;;21.03;100.00
9905;BME280;4991;43.566;27.820;2023-07-31T05:20:48;98293.91;;;21.12;100.00
9905;BME280;4991;43.566;27.820;2023-07-31T05:23:14;98299.13;;;21.20;100.00
9905;BME280;4991;43.566;27.820;2023-07-31T05:25:40;98311.03;;;21.31;100.00
9905;BME280;4991;43.566;27.820;2023-07-31T05:28:05;98311.03;;;21.28;100.00
9905;BME280;4991;43.566;27.820;2023-07-31T05:30:31;98311.06;;;21.35;100.00
9905;BME280;4991;43.566;27.820;2023-07-31T05:32:57;98306.41;;;21.49;100.00
9905;BME280;4991;43.566;27.820;2023-07-31T05:35:22;98308.84;;;21.58;100.00
9905;BME280;4991;43.566;27.820;2023-07-31T05:37:48;98315.19;;;21.62;100.00
9905;BME280;4991;43.566;27.820;2023-07-31T05:40:14;98320.75;;;21.69;100.00
9905;BME280;4991;43.566;27.820;2023-07-31T05:42:40;98322.44;;;21.77;100.00
9905;BME280;4991;43.566;27.820;2023-07-31T05:45:06;98326.34;;;21.76;100.00
9905;BME280;4991;43.566;27.820;2023-07-31T05:47:33;98327.59;;;21.86;100.00
9905;BME280;4991;43.566;27.820;2023-07-31T05:49:58;98326.88;;;21.99;100.00
9905;BME280;4991;43.566;27.820;2023-07-31T05:52:24;98324.56;;;22.12;100.00
9905;BME280;4991;43.566;27.820;2023-07-31T05:54:50;98309.09;;;22.14;100.00
9905;BME280;4991;43.566;27.820;2023-07-31T05:57:16;98316.28;;;22.29;100.00
9905;BME280;4991;43.566;27.820;2023-07-31T05:59:41;98322.25;;;22.35;100.00
9905;BME280;4991;43.566;27.820;2023-07-31T06:02:07;98325.44;;;22.37;100.00
9905;BME280;4991;43.566;27.820;2023-07-31T06:04:32;98323.13;;;22.53;100.00
9905;BME280;4991;43.566;27.820;2023-07-31T06:06:58;98324.69;;;22.54;100.00
9905;BME280;4991;43.566;27.820;2023-07-31T06:09:24;98338.59;;;22.61;100.00
9905;BME280;4991;43.566;27.820;2023-07-31T06:11:51;98341.41;;;22.71;100.00
9905;BME280;4991;43.566;27.820;2023-07-31T06:14:16;98339.41;;;22.79;100.00
9905;BME280;4991;43.566;27.820;2023-07-31T06:16:42;98336.63;;;23.00;100.00
9905;BME280;4991;43.566;27.820;2023-07-31T06:19:09;98352.13;;;23.01;100.00
9905;BME280;4991;43.566;27.820;2023-07-31T06:21:35;98339.00;;;23.05;100.00
9905;BME280;4991;43.566;27.820;2023-07-31T06:24:03;98348.53;;;23.25;100.00
9905;BME280;4991;43.566;27.820;2023-07-31T06:26:29;98338.25;;;23.36;100.00
9905;BME280;4991;43.566;27.820;2023-07-31T06:28:54;98343.78;;;23.40;100.00
9905;BME280;4991;43.566;27.820;2023-07-31T06:31:20;98356.47;;;23.62;100.00
9905;BME280;4991;43.566;27.820;2023-07-31T06:33:51;98345.75;;;23.53;100.00
9905;BME280;4991;43.566;27.820;2023-07-31T06:36:17;98353.69;;;23.62;100.00
9905;BME280;4991;43.566;27.820;2023-07-31T06:38:43;98357.66;;;23.57;100.00
9905;BME280;4991;43.566;27.820;2023-07-31T06:41:08;98348.53;;;23.64;100.00
9905;BME280;4991;43.566;27.820;2023-07-31T06:43:36;98357.25;;;23.62;100.00
9905;BME280;4991;43.566;27.820;2023-07-31T06:46:07;98354.44;;;23.73;100.00
9905;BME280;4991;43.566;27.820;2023-07-31T06:48:34;98354.03;;;23.78;100.00
9905;BME280;4991;43.566;27.820;2023-07-31T06:51:03;98352.44;;;23.84;100.00
9905;BME280;4991;43.566;27.820;2023-07-31T06:53:28;98356.75;;;24.09;100.00
9905;BME280;4991;43.566;27.820;2023-07-31T06:55:54;98357.16;;;23.97;100.00
9905;BME280;4991;43.566;27.820;2023-07-31T06:58:20;98355.56;;;24.14;100.00
9905;BME280;4991;43.566;27.820;2023-07-31T07:00:46;98358.53;;;24.48;100.00
9905;BME280;4991;43.566;27.820;2023-07-31T07:03:11;98351.41;;;24.47;100.00
9905;BME280;4991;43.566;27.820;2023-07-31T07:05:40;98348.59;;;24.54;100.00
9905;BME280;4991;43.566;27.820;2023-07-31T07:08:05;98360.88;;;24.60;100.00
9905;BME280;4991;43.566;27.820;2023-07-31T07:10:31;98349.72;;;24.63;100.00
9905;BME280;4991;43.566;27.820;2023-07-31T07:12:57;98351.38;;;24.54;100.00
9905;BME280;4991;43.566;27.820;2023-07-31T07:15:22;98352.25;;;24.40;100.00
9905;BME280;4991;43.566;27.820;2023-07-31T07:17:48;98356.19;;;24.43;100.00
9905;BME280;4991;43.566;27.820;2023-07-31T07:20:13;98353.03;;;24.41;100.00
9905;BME280;4991;43.566;27.820;2023-07-31T07:22:39;98356.94;;;24.54;100.00
9905;BME280;4991;43.566;27.820;2023-07-31T07:25:05;98355.03;;;24.40;100.00
9905;BME280;4991;43.566;27.820;2023-07-31T07:27:32;98360.53;;;24.51;100.00
9905;BME280;4991;43.566;27.820;2023-07-31T07:29:58;98353.72;;;24.62;100.00
9905;BME280;4991;43.566;27.820;2023-07-31T07:32:24;98347.69;;;24.71;100.00
9905;BME280;4991;43.566;27.820;2023-07-31T07:34:50;98357.28;;;24.59;100.00
9905;BME280;4991;43.566;27.820;2023-07-31T07:37:16;98349.78;;;24.53;100.00
9905;BME280;4991;43.566;27.820;2023-07-31T07:39:42;98352.94;;;24.58;100.00
9905;BME280;4991;43.566;27.820;2023-07-31T07:42:07;98353.75;;;24.55;100.00
9905;BME280;4991;43.566;27.820;2023-07-31T07:44:33;98361.97;;;24.80;100.00
9905;BME280;4991;43.566;27.820;2023-07-31T07:46:58;98360.34;;;24.86;100.00
9905;BME280;4991;43.566;27.820;2023-07-31T07:49:24;98358.59;;;25.06;100.00
9905;BME280;4991;43.566;27.820;2023-07-31T07:51:50;98358.88;;;25.22;100.00
9905;BME280;4991;43.566;27.820;2023-07-31T07:54:15;98355.59;;;25.30;100.00
9905;BME280;4991;43.566;27.820;2023-07-31T07:56:42;98352.63;;;25.55;100.00
9905;BME280;4991;43.566;27.820;2023-07-31T07:59:08;98357.84;;;25.50;100.00
9905;BME280;4991;43.566;27.820;2023-07-31T08:01:34;98360.34;;;25.78;100.00
9905;BME280;4991;43.566;27.820;2023-07-31T08:04:00;98363.34;;;25.60;100.00
9905;BME280;4991;43.566;27.820;2023-07-31T08:06:26;98355.09;;;25.46;100.00
9905;BME280;4991;43.566;27.820;2023-07-31T08:08:51;98352.25;;;25.53;100.00
9905;BME280;4991;43.566;27.820;2023-07-31T08:11:17;98374.34;;;25.30;100.00
9905;BME280;4991;43.566;27.820;2023-07-31T08:13:43;98369.63;;;25.23;100.00
9905;BME280;4991;43.566;27.820;2023-07-31T08:16:08;98373.91;;;25.31;100.00
9905;BME280;4991;43.566;27.820;2023-07-31T08:18:35;98372.44;;;25.64;100.00
9905;BME280;4991;43.566;27.820;2023-07-31T08:21:03;98379.84;;;25.81;100.00
9905;BME280;4991;43.566;27.820;2023-07-31T08:23:29;98381.22;;;25.63;100.00
9905;BME280;4991;43.566;27.820;2023-07-31T08:25:55;98379.81;;;25.85;100.00
9905;BME280;4991;43.566;27.820;2023-07-31T08:28:20;98385.53;;;25.71;100.00
9905;BME280;4991;43.566;27.820;2023-07-31T08:30:46;98376.31;;;25.29;100.00
9905;BME280;4991;43.566;27.820;2023-07-31T08:33:12;98385.31;;;25.51;100.00
9905;BME280;4991;43.566;27.820;2023-07-31T08:35:37;98389.28;;;25.54;100.00
9905;BME280;4991;43.566;27.820;2023-07-31T08:38:03;98393.84;;;25.30;100.00
9905;BME280;4991;43.566;27.820;2023-07-31T08:40:29;98391.97;;;25.13;100.00
9905;BME280;4991;43.566;27.820;2023-07-31T08:42:55;98396.84;;;25.02;100.00
9905;BME280;4991;43.566;27.820;2023-07-31T08:45:27;98399.66;;;24.98;100.00
9905;BME280;4991;43.566;27.820;2023-07-31T08:47:53;98393.47;;;24.59;100.00
9905;BME280;4991;43.566;27.820;2023-07-31T08:50:20;98403.50;;;24.46;100.00
9905;BME280;4991;43.566;27.820;2023-07-31T08:52:48;98397.09;;;24.53;100.00
9905;BME280;4991;43.566;27.820;2023-07-31T08:55:14;98407.06;;;24.50;100.00
9905;BME280;4991;43.566;27.820;2023-07-31T08:57:39;98394.78;;;24.41;100.00
9905;BME280;4991;43.566;27.820;2023-07-31T09:00:08;98403.09;;;24.48;100.00
9905;BME280;4991;43.566;27.820;2023-07-31T09:02:38;98411.53;;;24.27;100.00
9905;BME280;4991;43.566;27.820;2023-07-31T09:05:07;98409.25;;;24.04;100.00
9905;BME280;4991;43.566;27.820;2023-07-31T09:07:36;98415.97;;;24.17;100.00
9905;BME280;4991;43.566;27.820;2023-07-31T09:10:03;98420.38;;;24.00;100.00
9905;BME280;4991;43.566;27.820;2023-07-31T09:12:29;98420.34;;;23.90;100.00
9905;BME280;4991;43.566;27.820;2023-07-31T09:14:58;98422.75;;;23.88;100.00
9905;BME280;4991;43.566;27.820;2023-07-31T09:17:31;98419.59;;;23.61;100.00
9905;BME280;4991;43.566;27.820;2023-07-31T09:19:57;98422.78;;;23.35;100.00
9905;BME280;4991;43.566;27.820;2023-07-31T09:22:33;98429.91;;;23.01;100.00
9905;BME280;4991;43.566;27.820;2023-07-31T09:25:28;98440.94;;;22.83;100.00
9905;BME280;4991;43.566;27.820;2023-07-31T09:27:59;98442.50;;;22.74;100.00
9905;BME280;4991;43.566;27.820;2023-07-31T09:30:26;98444.50;;;22.70;100.00
9905;BME280;4991;43.566;27.820;2023-07-31T09:33:01;98445.25;;;22.60;100.00
9905;BME280;4991;43.566;27.820;2023-07-31T09:35:34;98450.00;;;22.59;100.00
9905;BME280;4991;43.566;27.820;2023-07-31T09:38:04;98453.97;;;22.65;100.00
9905;BME280;4991;43.566;27.820;2023-07-31T09:40:32;98450.81;;;22.60;100.00
9905;BME280;4991;43.566;27.820;2023-07-31T09:43:00;98449.63;;;22.64;100.00
9905;BME280;4991;43.566;27.820;2023-07-31T09:45:26;98450.00;;;22.56;100.00
9905;BME280;4991;43.566;27.820;2023-07-31T09:47:53;98447.56;;;22.51;100.00
9905;BME280;4991;43.566;27.820;2023-07-31T09:50:24;98454.78;;;22.62;100.00
9905;BME280;4991;43.566;27.820;2023-07-31T09:52:51;98447.28;;;22.77;100.00
9905;BME280;4991;43.566;27.820;2023-07-31T09:55:18;98433.00;;;22.78;100.00
9905;BME280;4991;43.566;27.820;2023-07-31T09:57:48;98451.72;;;22.99;100.00
9905;BME280;4991;43.566;27.820;2023-07-31T10:00:16;98448.91;;;22.88;100.00
9905;BME280;4991;43.566;27.820;2023-07-31T10:02:45;98433.84;;;22.93;100.00
9905;BME280;4991;43.566;27.820;2023-07-31T10:05:15;98449.00;;;23.31;100.00
9905;BME280;4991;43.566;27.820;2023-07-31T10:07:54;98437.44;;;23.25;100.00
9905;BME280;4991;43.566;27.820;2023-07-31T10:10:22;98437.44;;;23.08;100.00
9905;BME280;4991;43.566;27.820;2023-07-31T10:12:49;98440.19;;;22.97;100.00
9905;BME280;4991;43.566;27.820;2023-07-31T10:15:15;98444.22;;;23.24;100.00
9905;BME280;4991;43.566;27.820;2023-07-31T10:17:42;98450.13;;;23.09;100.00
9905;BME280;4991;43.566;27.820;2023-07-31T10:20:09;98433.91;;;23.32;100.00
9905;BME280;4991;43.566;27.820;2023-07-31T10:22:35;98446.22;;;23.45;100.00
9905;BME280;4991;43.566;27.820;2023-07-31T10:25:01;98450.97;;;23.55;100.00
9905;BME280;4991;43.566;27.820;2023-07-31T10:27:27;98448.97;;;23.80;100.00
9905;BME280;4991;43.566;27.820;2023-07-31T10:29:55;98437.47;;;23.78;100.00
9905;BME280;4991;43.566;27.820;2023-07-31T10:32:22;98446.19;;;23.90;100.00
9905;BME280;4991;43.566;27.820;2023-07-31T10:34:50;98435.03;;;24.08;100.00
9905;BME280;4991;43.566;27.820;2023-07-31T10:37:40;98443.00;;;24.06;100.00
9905;BME280;4991;43.566;27.820;2023-07-31T10:40:11;98446.59;;;23.82;100.00
9905;BME280;4991;43.566;27.820;2023-07-31T10:42:51;98416.44;;;23.63;100.00
9905;BME280;4991;43.566;27.820;2023-07-31T10:45:44;98434.69;;;23.99;100.00
9905;BME280;4991;43.566;27.820;2023-07-31T10:48:15;98432.66;;;24.13;100.00
9905;BME280;4991;43.566;27.820;2023-07-31T10:50:51;98440.94;;;24.31;100.00
9905;BME280;4991;43.566;27.820;2023-07-31T10:53:30;98434.53;;;24.45;100.00
9905;BME280;4991;43.566;27.820;2023-07-31T10:56:00;98432.53;;;24.49;100.00
9905;BME280;4991;43.566;27.820;2023-07-31T10:58:26;98435.31;;;24.49;100.00
9905;BME280;4991;43.566;27.820;2023-07-31T11:00:56;98436.88;;;24.53;100.00
9905;BME280;4991;43.566;27.820;2023-07-31T11:03:40;98430.97;;;24.41;100.00
9905;BME280;4991;43.566;27.820;2023-07-31T11:06:06;98425.38;;;24.44;100.00
9905;BME280;4991;43.566;27.820;2023-07-31T11:08:33;98420.19;;;24.50;100.00
9905;BME280;4991;43.566;27.820;2023-07-31T11:13:39;98421.44;;;24.35;100.00
9905;BME280;4991;43.566;27.820;2023-07-31T11:16:06;98407.19;;;24.26;100.00
9905;BME280;4991;43.566;27.820;2023-07-31T11:18:31;98408.44;;;24.03;100.00
9905;BME280;4991;43.566;27.820;2023-07-31T11:20:57;98413.19;;;24.06;100.00
9905;BME280;4991;43.566;27.820;2023-07-31T11:23:23;98409.66;;;24.02;100.00
9905;BME280;4991;43.566;27.820;2023-07-31T11:25:50;98407.25;;;23.83;100.00
9905;BME280;4991;43.566;27.820;2023-07-31T11:28:18;98402.50;;;23.70;100.00
9905;BME280;4991;43.566;27.820;2023-07-31T11:30:45;98402.50;;;23.73;100.00
9905;BME280;4991;43.566;27.820;2023-07-31T11:33:13;98396.53;;;23.82;100.00
9905;BME280;4991;43.566;27.820;2023-07-31T11:35:47;98404.53;;;23.69;100.00
9905;BME280;4991;43.566;27.820;2023-07-31T11:38:33;98393.41;;;23.62;100.00
9905;BME280;4991;43.566;27.820;2023-07-31T11:41:01;98392.19;;;23.56;100.00
9905;BME280;4991;43.566;27.820;2023-07-31T11:43:31;98388.66;;;23.45;100.00
9905;BME280;4991;43.566;27.820;2023-07-31T11:45:58;98395.41;;;23.41;100.00
9905;BME280;4991;43.566;27.820;2023-07-31T11:48:29;98389.06;;;23.47;100.00
9905;BME280;4991;43.566;27.820;2023-07-31T11:51:03;98390.66;;;23.38;100.00
9905;BME280;4991;43.566;27.820;2023-07-31T11:53:41;98390.25;;;23.29;100.00
9905;BME280;4991;43.566;27.820;2023-07-31T11:56:11;98393.78;;;23.15;100.00
9905;BME280;4991;43.566;27.820;2023-07-31T11:58:39;98391.41;;;23.03;100.00
9905;BME280;4991;43.566;27.820;2023-07-31T12:01:05;98388.19;;;22.80;100.00
9905;BME280;4991;43.566;27.820;2023-07-31T12:03:31;98398.53;;;22.93;100.00
9905;BME280;4991;43.566;27.820;2023-07-31T12:05:58;98395.34;;;22.95;100.00
9905;BME280;4991;43.566;27.820;2023-07-31T12:08:24;98397.75;;;22.89;100.00
9905;BME280;4991;43.566;27.820;2023-07-31T12:10:52;98398.53;;;22.86;100.00
9905;BME280;4991;43.566;27.820;2023-07-31T12:13:22;98394.50;;;22.63;100.00
9905;BME280;4991;43.566;27.820;2023-07-31T12:15:48;98401.66;;;22.67;100.00
9905;BME280;4991;43.566;27.820;2023-07-31T12:18:18;98399.16;;;22.41;100.00
9905;BME280;4991;43.566;27.820;2023-07-31T12:20:46;98394.78;;;22.30;100.00
9905;BME280;4991;43.566;27.820;2023-07-31T12:23:43;98395.91;;;22.18;100.00
9905;BME280;4991;43.566;27.820;2023-07-31T12:28:44;98373.31;;;22.20;100.00
9905;BME280;4991;43.566;27.820;2023-07-31T12:31:20;98374.53;;;22.26;100.00
9905;BME280;4991;43.566;27.820;2023-07-31T12:33:49;98375.69;;;22.18;100.00
9905;BME280;4991;43.566;27.820;2023-07-31T12:36:18;98375.66;;;22.11;100.00
9905;BME280;4991;43.566;27.820;2023-07-31T12:38:45;98364.63;;;22.21;100.00
9905;BME280;4991;43.566;27.820;2023-07-31T12:41:11;98357.13;;;22.36;100.00
9905;BME280;4991;43.566;27.820;2023-07-31T12:43:39;98362.72;;;22.50;100.00
9905;BME280;4991;43.566;27.820;2023-07-31T12:46:05;98358.75;;;22.47;100.00
9905;BME280;4991;43.566;27.820;2023-07-31T12:48:31;98359.97;;;22.57;100.00
9905;BME280;4991;43.566;27.820;2023-07-31T12:50:57;98350.09;;;22.77;100.00
9905;BME280;4991;43.566;27.820;2023-07-31T12:53:23;98352.50;;;22.92;100.00
9905;BME280;4991;43.566;27.820;2023-07-31T12:55:49;98360.84;;;23.10;100.00
9905;BME280;4991;43.566;27.820;2023-07-31T12:58:15;98349.34;;;23.26;100.00
9905;BME280;4991;43.566;27.820;2023-07-31T13:00:40;98362.47;;;23.39;100.00
9905;BME280;4991;43.566;27.820;2023-07-31T13:03:06;98350.94;;;23.41;100.00
9905;BME280;4991;43.566;27.820;2023-07-31T13:05:32;98351.34;;;23.39;100.00
9905;BME280;4991;43.566;27.820;2023-07-31T13:07:57;98355.69;;;23.40;100.00
9905;BME280;4991;43.566;27.820;2023-07-31T13:10:24;98353.31;;;23.53;100.00
9905;BME280;4991;43.566;27.820;2023-07-31T13:12:50;98346.97;;;23.45;100.00